NCAR-RAP Real-Time Weather Data

Output produced by METARs form (23 June 2018  16:10 UTC)
found at http://weather.rap.ucar.edu/surface/
 
Conditions at: KORL observed 23 June 2018  14:53 UTC
Temperature: 31.1°C (88°F)
Dewpoint: 23.3°C (74°F) [RH = 63%]
Pressure (altimeter): 30.03 inches Hg (1017.0 mb)
[Sea-level pressure: 1017.0 mb]
Winds: from the W (280 degrees) at 10 MPH (9 knots; 4.7 m/s)
Visibility: 10 or more miles (16+ km)
Ceiling: at least 12,000 feet AGL
Clouds: sky clear below 12,000 feet AGL
Present Weather: no significant weather observed at this time
KORL 231453Z 28009KT 10SM CLR 31/23 A3003 RMK AO2 SLP170 T03110233 52005

Conditions at: KORL observed 23 June 2018  13:53 UTC
Temperature: 30.0°C (86°F)
Dewpoint: 23.9°C (75°F) [RH = 70%]
Pressure (altimeter): 30.02 inches Hg (1016.7 mb)
[Sea-level pressure: 1016.8 mb]
Winds: from the W (280 degrees) at 12 MPH (10 knots; 5.2 m/s)
Visibility: 10 or more miles (16+ km)
Ceiling: at least 12,000 feet AGL
Clouds: sky clear below 12,000 feet AGL
Present Weather: no significant weather observed at this time
KORL 231353Z 28010KT 10SM CLR 30/24 A3002 RMK AO2 SLP168 T03000239

Conditions at: KORL observed 23 June 2018  12:53 UTC
Temperature: 28.9°C (84°F)
Dewpoint: 25.0°C (77°F) [RH = 80%]
Pressure (altimeter): 30.02 inches Hg (1016.7 mb)
[Sea-level pressure: 1016.6 mb]
Winds: from the W (270 degrees) at 8 MPH (7 knots; 3.6 m/s)
Visibility: 10 or more miles (16+ km)
Ceiling: at least 12,000 feet AGL
Clouds: sky clear below 12,000 feet AGL
Present Weather: no significant weather observed at this time
KORL 231253Z 27007KT 10SM CLR 29/25 A3002 RMK AO2 SLP166 T02890250

Conditions at: KORL observed 23 June 2018  11:53 UTC
Temperature: 27.2°C (81°F)
Dewpoint: 25.6°C (78°F) [RH = 91%]
Pressure (altimeter): 30.01 inches Hg (1016.3 mb)
[Sea-level pressure: 1016.4 mb]
Winds: from the WSW (250 degrees) at 5 MPH (4 knots; 2.1 m/s)
Visibility: 9 miles (14 km)
Ceiling: at least 12,000 feet AGL
Clouds: sky clear below 12,000 feet AGL
Present Weather:
SOME DATA ABOVE MAY BE INACCURATE!!!
"$" is an indication the sensor requires maintenance
KORL 231153Z 25004KT 9SM CLR 27/26 A3001 RMK AO2 SLP164 7//// T02720256 10272 20250 53013 $

Conditions at: KORL observed 23 June 2018  10:53 UTC
Temperature: 25.6°C (78°F)
Dewpoint: 25.0°C (77°F) [RH = 96%]
Pressure (altimeter): 29.99 inches Hg (1015.7 mb)
[Sea-level pressure: 1015.7 mb]
Winds: from the WSW (250 degrees) at 6 MPH (5 knots; 2.6 m/s)
Visibility: 6 miles (10 km)
Ceiling: at least 12,000 feet AGL
Clouds: sky clear below 12,000 feet AGL
Present Weather: BR  (mist)
SOME DATA ABOVE MAY BE INACCURATE!!!
"$" is an indication the sensor requires maintenance
KORL 231053Z 25005KT 6SM BR CLR 26/25 A2999 RMK AO2 SLP157 T02560250 $

Conditions at: KORL observed 23 June 2018  09:53 UTC
Temperature: 25.0°C (77°F)
Dewpoint: 24.4°C (76°F) [RH = 96%]
Pressure (altimeter): 29.97 inches Hg (1015.0 mb)
[Sea-level pressure: 1015.3 mb]
Winds: from the SW (230 degrees) at 5 MPH (4 knots; 2.1 m/s)
Visibility: 7 miles (11 km)
Ceiling: at least 12,000 feet AGL
Clouds: sky clear below 12,000 feet AGL
Present Weather:
SOME DATA ABOVE MAY BE INACCURATE!!!
"$" is an indication the sensor requires maintenance
KORL 230953Z AUTO 23004KT 7SM CLR 25/24 A2997 RMK AO2 SLP153 T02500244 $

Conditions at: KORL observed 23 June 2018  08:53 UTC
Temperature: 25.0°C (77°F)
Dewpoint: 24.4°C (76°F) [RH = 96%]
Pressure (altimeter): 29.97 inches Hg (1015.0 mb)
[Sea-level pressure: 1015.1 mb]
Winds: from the WSW (240 degrees) at 5 MPH (4 knots; 2.1 m/s)
Visibility: 8 miles (13 km)
Ceiling: at least 12,000 feet AGL
Clouds: sky clear below 12,000 feet AGL
Present Weather:
SOME DATA ABOVE MAY BE INACCURATE!!!
"$" is an indication the sensor requires maintenance
KORL 230853Z AUTO 24004KT 8SM CLR 25/24 A2997 RMK AO2 SLP151 T02500244 55006 $

Conditions at: KORL observed 23 June 2018  07:53 UTC
Temperature: 25.6°C (78°F)
Dewpoint: 25.0°C (77°F) [RH = 96%]
Pressure (altimeter): 29.97 inches Hg (1015.0 mb)
[Sea-level pressure: 1014.9 mb]
Winds: from the SSW (200 degrees) at 6 MPH (5 knots; 2.6 m/s)
Visibility: 8 miles (13 km)
Ceiling: at least 12,000 feet AGL
Clouds: sky clear below 12,000 feet AGL
Present Weather:
SOME DATA ABOVE MAY BE INACCURATE!!!
"$" is an indication the sensor requires maintenance
KORL 230753Z AUTO 20005KT 8SM CLR 26/25 A2997 RMK AO2 SLP149 T02560250 $

Conditions at: KORL observed 23 June 2018  06:53 UTC
Temperature: 25.6°C (78°F)
Dewpoint: 25.0°C (77°F) [RH = 96%]
Pressure (altimeter): 29.98 inches Hg (1015.3 mb)
[Sea-level pressure: 1015.3 mb]
Winds: from the S (180 degrees) at 3 MPH (3 knots; 1.6 m/s)
Visibility: 9 miles (14 km)
Ceiling: at least 12,000 feet AGL
Clouds: sky clear below 12,000 feet AGL
Present Weather:
SOME DATA ABOVE MAY BE INACCURATE!!!
"$" is an indication the sensor requires maintenance
KORL 230653Z AUTO 18003KT 9SM CLR 26/25 A2998 RMK AO2 SLP153 T02560250 $

Conditions at: KORL observed 23 June 2018  05:53 UTC
Temperature: 25.6°C (78°F)
Dewpoint: 25.0°C (77°F) [RH = 96%]
Pressure (altimeter): 29.99 inches Hg (1015.7 mb)
[Sea-level pressure: 1015.7 mb]
Winds: from the S (180 degrees) at 3 MPH (3 knots; 1.6 m/s)
Visibility: 10 or more miles (16+ km)
Ceiling: at least 12,000 feet AGL
Clouds: sky clear below 12,000 feet AGL
Present Weather:
SOME DATA ABOVE MAY BE INACCURATE!!!
"$" is an indication the sensor requires maintenance
KORL 230553Z AUTO 18003KT 10SM CLR 26/25 A2999 RMK AO2 SLP157 60001 T02560250 10256 20244 50001 $

Conditions at: KORL observed 23 June 2018  04:53 UTC
Temperature: 25.0°C (77°F)
Dewpoint: 24.4°C (76°F) [RH = 96%]
Pressure (altimeter): 30.00 inches Hg (1016.0 mb)
[Sea-level pressure: 1016.0 mb]
Winds: calm
Visibility: 10 or more miles (16+ km)
Ceiling: at least 12,000 feet AGL
Clouds: sky clear below 12,000 feet AGL
Present Weather:
SOME DATA ABOVE MAY BE INACCURATE!!!
"$" is an indication the sensor requires maintenance
KORL 230453Z AUTO 00000KT 10SM CLR 25/24 A3000 RMK AO2 SLP160 T02500244 403440239 $

Conditions at: KORL observed 23 June 2018  03:53 UTC
Temperature: 25.0°C (77°F)
Dewpoint: 23.9°C (75°F) [RH = 94%]
Pressure (altimeter): 30.00 inches Hg (1016.0 mb)
[Sea-level pressure: 1016.1 mb]
Winds: calm
Visibility: 10 or more miles (16+ km)
Ceiling: at least 12,000 feet AGL
Clouds: sky clear below 12,000 feet AGL
Present Weather:
SOME DATA ABOVE MAY BE INACCURATE!!!
"$" is an indication the sensor requires maintenance
KORL 230353Z AUTO 00000KT 10SM CLR 25/24 A3000 RMK AO2 SLP161 T02500239 $

Conditions at: KORL observed 23 June 2018  02:53 UTC
Temperature: 24.4°C (76°F)
Dewpoint: 24.4°C (76°F) [RH = 100%]
Pressure (altimeter): 29.99 inches Hg (1015.7 mb)
[Sea-level pressure: 1015.6 mb]
Winds: from the ESE (120 degrees) at 3 MPH (3 knots; 1.6 m/s)
Visibility: 10 or more miles (16+ km)
Ceiling: at least 12,000 feet AGL
Clouds: sky clear below 12,000 feet AGL
Present Weather:
SOME DATA ABOVE MAY BE INACCURATE!!!
"$" is an indication the sensor requires maintenance
KORL 230253Z AUTO 12003KT 10SM CLR 24/24 A2999 RMK AO2 SLP156 60001 T02440244 53007 $

Conditions at: KORL observed 23 June 2018  01:53 UTC
Temperature: 24.4°C (76°F)
Dewpoint: 23.9°C (75°F) [RH = 97%]
Pressure (altimeter): 29.97 inches Hg (1015.0 mb)
[Sea-level pressure: 1014.9 mb]
Winds: calm
Visibility: 10 or more miles (16+ km)
Ceiling: at least 12,000 feet AGL
Clouds: sky clear below 12,000 feet AGL
Present Weather:
SOME DATA ABOVE MAY BE INACCURATE!!!
"$" is an indication the sensor requires maintenance
KORL 230153Z 00000KT 10SM CLR 24/24 A2997 RMK AO2 RAE24 SLP149 P0000 T02440239 $

Conditions at: KORL observed 23 June 2018  00:53 UTC
Temperature: 25.0°C (77°F)
Dewpoint: 23.3°C (74°F) [RH = 90%]
Pressure (altimeter): 29.95 inches Hg (1014.3 mb)
[Sea-level pressure: 1014.5 mb]
Winds: from the SSE (160 degrees) at 6 MPH (5 knots; 2.6 m/s)
Visibility: 10 or more miles (16+ km)
Ceiling: at least 12,000 feet AGL
Clouds: few clouds at 9000 feet AGL
scattered clouds at 12000 feet AGL
Present Weather: -RA  (light rain)
SOME DATA ABOVE MAY BE INACCURATE!!!
"$" is an indication the sensor requires maintenance
KORL 230053Z 16005KT 10SM -RA FEW090 SCT120 25/23 A2995 RMK AO2 SLP145 P0001 T02500233 $

Conditions at: KORL observed 23 June 2018  00:18 UTC
Temperature: 25.0°C (77°F)
Dewpoint: 23.9°C (75°F) [RH = 94%]
Pressure (altimeter): 29.96 inches Hg (1014.6 mb)
Winds: from the SE (140 degrees) at 9 MPH (8 knots; 4.2 m/s)
Visibility: 10 or more miles (16+ km)
Ceiling: 9500 feet AGL
Clouds: few clouds at 5000 feet AGL
scattered clouds at 7500 feet AGL
broken clouds at 9500 feet AGL
Present Weather: -RA  (light rain)
SOME DATA ABOVE MAY BE INACCURATE!!!
"$" is an indication the sensor requires maintenance
KORL 230018Z 14008KT 10SM -RA FEW050 SCT075 BKN095 25/24 A2996 RMK AO2 LTG DSNT NE-S P0001 T02500239 $

Conditions at: KORL observed 22 June 2018  23:53 UTC
Temperature: 25.0°C (77°F)
Dewpoint: 23.9°C (75°F) [RH = 94%]
Pressure (altimeter): 29.97 inches Hg (1015.0 mb)
[Sea-level pressure: 1015.0 mb]
Winds: from the NNE (30 degrees) at 15 MPH (13 knots; 6.8 m/s)
Visibility: 10 or more miles (16+ km)
Ceiling: 9000 feet AGL
Clouds: few clouds at 900 feet AGL
scattered clouds at 4700 feet AGL
broken clouds at 9000 feet AGL
Present Weather: VCTS -RA  (thunderstorm in vicinity, light rain)
SOME DATA ABOVE MAY BE INACCURATE!!!
"$" is an indication the sensor requires maintenance
KORL 222353Z 03013KT 10SM VCTS -RA FEW009 SCT047 BKN090 25/24 A2997 RMK AO2 LTG DSNT N AND E RAE04B26 SLP150 P0000 60031 T02500239 10344 20239 53007 $

Conditions at: KORL observed 22 June 2018  23:44 UTC
Temperature: 24.4°C (76°F)
Dewpoint: 23.9°C (75°F) [RH = 97%]
Pressure (altimeter): 29.96 inches Hg (1014.6 mb)
Winds: from the SE (140 degrees) at 5 MPH (4 knots; 2.1 m/s)
Visibility: 10 or more miles (16+ km)
Ceiling: 9500 feet AGL
Clouds: few clouds at 4500 feet AGL
broken clouds at 9500 feet AGL
broken clouds at 12000 feet AGL
Present Weather: VCTS -RA  (thunderstorm in vicinity, light rain)
SOME DATA ABOVE MAY BE INACCURATE!!!
"$" is an indication the sensor requires maintenance
KORL 222344Z 14004KT 10SM VCTS -RA FEW045 BKN095 BKN120 24/24 A2996 RMK AO2 LTG DSNT N RAE04B26 P0000 T02440239 $

Conditions at: KORL observed 22 June 2018  23:00 UTC
Temperature: 24.4°C (76°F)
Dewpoint: 23.3°C (74°F) [RH = 94%]
Pressure (altimeter): 29.95 inches Hg (1014.3 mb)
Winds: from the SE (130 degrees) at 5 MPH (4 knots; 2.1 m/s)
Visibility: 10 or more miles (16+ km)
Ceiling: at least 12,000 feet AGL
Clouds: few clouds at 8500 feet AGL
few clouds at 11000 feet AGL
Present Weather: -RA  (light rain)
SOME DATA ABOVE MAY BE INACCURATE!!!
"$" is an indication the sensor requires maintenance
KORL 222300Z 13004KT 10SM -RA FEW085 FEW110 24/23 A2995 RMK AO2 LTG DSNT N-SE P0000 T02440233 $

Conditions at: KORL observed 22 June 2018  22:53 UTC
Temperature: 24.4°C (76°F)
Dewpoint: 22.8°C (73°F) [RH = 91%]
Pressure (altimeter): 29.95 inches Hg (1014.3 mb)
[Sea-level pressure: 1014.5 mb]
Winds: from the E (80 degrees) at 7 MPH (6 knots; 3.1 m/s)
Visibility: 9 miles (14 km)
Ceiling: at least 12,000 feet AGL
Clouds: few clouds at 7000 feet AGL
scattered clouds at 8500 feet AGL
scattered clouds at 11000 feet AGL
Present Weather: VCTS -RA  (thunderstorm in vicinity, light rain)
SOME DATA ABOVE MAY BE INACCURATE!!!
"$" is an indication the sensor requires maintenance
KORL 222253Z 08006KT 9SM VCTS -RA FEW070 SCT085 SCT110 24/23 A2995 RMK AO2 LTG DSNT N-SE TSE46 SLP145 P0010 T02440228 $

Conditions at: KORL observed 22 June 2018  22:40 UTC
Temperature: 23.9°C (75°F)
Dewpoint: 22.8°C (73°F) [RH = 94%]
Pressure (altimeter): 29.93 inches Hg (1013.6 mb)
Winds: from the NE (50 degrees) at 9 MPH (8 knots; 4.2 m/s)
Visibility: 3 miles (5 km)
Ceiling: 11000 feet AGL
Clouds: scattered clouds at 7000 feet AGL
scattered clouds at 8500 feet AGL
broken clouds at 11000 feet AGL
Present Weather: TSRA BR  (rain associated with thunderstorm(s), mist)
SOME DATA ABOVE MAY BE INACCURATE!!!
"$" is an indication the sensor requires maintenance
KORL 222240Z 05008KT 3SM TSRA BR SCT070 SCT085 BKN110 24/23 A2993 RMK AO2 LTG DSNT N-SE P0010 T02390228 $

Conditions at: KORL observed 22 June 2018  22:27 UTC
Temperature: 24.4°C (76°F)
Dewpoint: 22.8°C (73°F) [RH = 91%]
Pressure (altimeter): 29.95 inches Hg (1014.3 mb)
Winds: from the N (350 degrees) at 10 MPH (9 knots; 4.7 m/s)
Visibility: 1.00 miles (1.61 km)
Ceiling: 11000 feet AGL
Clouds: scattered clouds at 6500 feet AGL
scattered clouds at 8000 feet AGL
broken clouds at 11000 feet AGL
Present Weather: +TSRA BR  (heavy rain associated with thunderstorm(s), mist)
SOME DATA ABOVE MAY BE INACCURATE!!!
"$" is an indication the sensor requires maintenance
KORL 222227Z 35009KT 1SM R07/P6000FT +TSRA BR SCT065 SCT080 BKN110 24/23 A2995 RMK AO2 LTG DSNT ALQDS P0006 T02440228 $

Conditions at: KORL observed 22 June 2018  21:53 UTC
Temperature: 25.0°C (77°F)
Dewpoint: 23.3°C (74°F) [RH = 90%]
Pressure (altimeter): 29.95 inches Hg (1014.3 mb)
[Sea-level pressure: 1014.4 mb]
Winds: from the SSE (150 degrees) at 10 MPH (9 knots; 4.7 m/s)
Visibility: 5 miles (8 km)
Ceiling: 10000 feet AGL
Clouds: few clouds at 4200 feet AGL
scattered clouds at 8000 feet AGL
broken clouds at 10000 feet AGL
Present Weather: -TSRA BR  (light rain associated with thunderstorm(s), mist)
KORL 222153Z 15009KT 5SM -TSRA BR FEW042 SCT080 BKN100 25/23 A2995 RMK AO2 PK WND 24032/2108 WSHFT 2103 LTG DSNT ALQDS RAB2056 TSB02 SLP144 P0021 T02500233

Conditions at: KORL observed 22 June 2018  21:39 UTC
Temperature: 26.1°C (79°F)
Dewpoint: 24.4°C (76°F) [RH = 90%]
Pressure (altimeter): 29.94 inches Hg (1014.0 mb)
Winds: from the S (180 degrees) at 12 MPH (10 knots; 5.2 m/s)
Visibility: 5 miles (8 km)
Ceiling: 9500 feet AGL
Clouds: scattered clouds at 4600 feet AGL
scattered clouds at 6000 feet AGL
overcast cloud deck at 9500 feet AGL
Present Weather: -TSRA BR  (light rain associated with thunderstorm(s), mist)
KORL 222139Z 18010KT 5SM R07/6000VP6000FT -TSRA BR SCT046 SCT060 OVC095 26/24 A2994 RMK AO2 PK WND 24032/2108 WSHFT 2103 LTG DSNT ALQDS RAB2056 TSB02 PRESRR P0020 T02610244

Conditions at: KORL observed 22 June 2018  21:27 UTC
Temperature: 26.1°C (79°F)
Dewpoint: 24.4°C (76°F) [RH = 90%]
Pressure (altimeter): 29.93 inches Hg (1013.6 mb)
Winds: from the SSW (200 degrees) at 22 MPH (19 knots; 9.9 m/s)
Visibility: 2.50 miles (4.02 km)
Ceiling: 4500 feet AGL
Clouds: broken clouds at 4500 feet AGL
broken clouds at 5500 feet AGL
overcast cloud deck at 9500 feet AGL
Present Weather: +TSRA BR  (heavy rain associated with thunderstorm(s), mist)
KORL 222127Z 20019KT 2 1/2SM R07/4000VP6000FT +TSRA BR BKN045 BKN055 OVC095 26/24 A2993 RMK AO2 PK WND 24032/2108 WSHFT 2103 LTG DSNT ALQDS RAB2056 TSB02 P0018 T02610244

Conditions at: KORL observed 22 June 2018  21:18 UTC
Temperature: 26.1°C (79°F)
Dewpoint: 23.3°C (74°F) [RH = 85%]
Pressure (altimeter): 29.91 inches Hg (1013.0 mb)
Winds: from the SSW (210 degrees) at 25 MPH (22 knots; 11.4 m/s)
Visibility: 1.00 miles (1.61 km)
Ceiling: 5500 feet AGL
Clouds: scattered clouds at 4500 feet AGL
broken clouds at 5500 feet AGL
overcast cloud deck at 9500 feet AGL
Present Weather: TSRA  (rain associated with thunderstorm(s))
KORL 222118Z 21022KT 1SM R07/2200VP6000FT TSRA SCT045 BKN055 OVC095 26/23 A2991 RMK AO2 PK WND 24032/2108 WSHFT 2103 LTG DSNT ALQDS RAB2056 TSB02 P0014 T02610233

Conditions at: KORL observed 22 June 2018  21:16 UTC
Temperature: 26.1°C (79°F)
Dewpoint: 23.3°C (74°F) [RH = 85%]
Pressure (altimeter): 29.91 inches Hg (1013.0 mb)
Winds: from the SSW (210 degrees) at 25 MPH (22 knots; 11.4 m/s)
gusting to 37 MPH (32 knots; 16.6 m/s)
Visibility: 0.75 miles (1.21 km)
Ceiling: 4500 feet AGL
Clouds: few clouds at 2600 feet AGL
broken clouds at 4500 feet AGL
overcast cloud deck at 5500 feet AGL
Present Weather: +TSRA  (heavy rain associated with thunderstorm(s))
KORL 222116Z 21022G32KT 3/4SM R07/2200VP6000FT +TSRA FEW026 BKN045 OVC055 26/23 A2991 RMK AO2 PK WND 24032/2108 LTG DSNT ALQDS RAB2056 TSB02 P0014 T02610233

Conditions at: KORL observed 22 June 2018  21:08 UTC
Temperature: 29.4°C (85°F)
Dewpoint: 24.4°C (76°F) [RH = 75%]
Pressure (altimeter): 29.90 inches Hg (1012.6 mb)
Winds: from the WSW (240 degrees) at 26 MPH (23 knots; 12.0 m/s)
gusting to 37 MPH (32 knots; 16.6 m/s)
Visibility: 1.50 miles (2.41 km)
Ceiling: 5500 feet AGL
Clouds: scattered clouds at 4500 feet AGL
overcast cloud deck at 5500 feet AGL
Present Weather: -TSRA  (light rain associated with thunderstorm(s))
KORL 222108Z 24023G32KT 1 1/2SM R07/2200VP6000FT -TSRA SCT045 OVC055 29/24 A2990 RMK AO2 PK WND 24032/2108 LTG DSNT ALQDS RAB2056 TSB02 P0006 T02940244

Conditions at: KORL observed 22 June 2018  20:53 UTC
Temperature: 33.3°C (92°F)
Dewpoint: 23.3°C (74°F) [RH = 56%]
Pressure (altimeter): 29.91 inches Hg (1013.0 mb)
[Sea-level pressure: 1013.0 mb]
Winds: from the NW (310 degrees) at 12 MPH (10 knots; 5.2 m/s)
Visibility: 10 or more miles (16+ km)
Ceiling: 5500 feet AGL
Clouds: overcast cloud deck at 5500 feet AGL
Present Weather: VCTS  (thunderstorm in vicinity)
KORL 222053Z 31010KT 10SM VCTS OVC055 33/23 A2991 RMK AO2 LTG DSNT ALQDS SLP130 T03330233 56017

Conditions at: KORL observed 22 June 2018  20:41 UTC
Temperature: 33.3°C (92°F)
Dewpoint: 21.7°C (71°F) [RH = 51%]
Pressure (altimeter): 29.91 inches Hg (1013.0 mb)
Winds: from the WNW (290 degrees) at 9 MPH (8 knots; 4.2 m/s)
Visibility: 10 or more miles (16+ km)
Ceiling: 6000 feet AGL
Clouds: broken clouds at 6000 feet AGL
Present Weather: VCTS  (thunderstorm in vicinity)
KORL 222041Z 29008KT 10SM VCTS BKN060 33/22 A2991 RMK AO2 LTG DSNT SW-N T03330217

Conditions at: KORL observed 22 June 2018  19:53 UTC
Temperature: 33.9°C (93°F)
Dewpoint: 23.3°C (74°F) [RH = 54%]
Pressure (altimeter): 29.92 inches Hg (1013.3 mb)
[Sea-level pressure: 1013.3 mb]
Winds: from the SSW (200 degrees) at 8 MPH (7 knots; 3.6 m/s)
Visibility: 10 or more miles (16+ km)
Ceiling: at least 12,000 feet AGL
Clouds: sky clear below 12,000 feet AGL
Present Weather: no significant weather observed at this time
KORL 221953Z 20007KT 10SM CLR 34/23 A2992 RMK AO2 SLP133 T03390233

Conditions at: KORL observed 22 June 2018  18:53 UTC
Temperature: 33.9°C (93°F)
Dewpoint: 22.2°C (72°F) [RH = 51%]
Pressure (altimeter): 29.94 inches Hg (1014.0 mb)
[Sea-level pressure: 1014.1 mb]
Winds: from the W (270 degrees) at 12 MPH (10 knots; 5.2 m/s)
Visibility: 10 or more miles (16+ km)
Ceiling: at least 12,000 feet AGL
Clouds: sky clear below 12,000 feet AGL
Present Weather: no significant weather observed at this time
KORL 221853Z 27010KT 10SM CLR 34/22 A2994 RMK AO2 SLP141 T03390222

Conditions at: KORL observed 22 June 2018  17:53 UTC
Temperature: 32.8°C (91°F)
Dewpoint: 23.3°C (74°F) [RH = 58%]
Pressure (altimeter): 29.96 inches Hg (1014.6 mb)
[Sea-level pressure: 1014.7 mb]
Winds: from the WSW (250 degrees) at 6 MPH (5 knots; 2.6 m/s)
Visibility: 10 or more miles (16+ km)
Ceiling: at least 12,000 feet AGL
Clouds: few clouds at 3800 feet AGL
Present Weather: no significant weather observed at this time
KORL 221753Z 25005KT 10SM FEW038 33/23 A2996 RMK AO2 LTG DSNT SW SLP147 6//// T03280233 10333 20272 58012

Conditions at: KORL observed 22 June 2018  16:53 UTC
Temperature: 31.7°C (89°F)
Dewpoint: 22.8°C (73°F) [RH = 59%]
Pressure (altimeter): 29.98 inches Hg (1015.3 mb)
[Sea-level pressure: 1015.5 mb]
Winds: variable direction winds at 7 MPH (6 knots; 3.1 m/s)
Visibility: 10 or more miles (16+ km)
Ceiling: at least 12,000 feet AGL
Clouds: scattered clouds at 3900 feet AGL
Present Weather: no significant weather observed at this time
KORL 221653Z VRB06KT 10SM SCT039 32/23 A2998 RMK AO2 SLP155 T03170228

Conditions at: KORL observed 22 June 2018  15:53 UTC
Temperature: 31.1°C (88°F)
Dewpoint: 23.3°C (74°F) [RH = 63%]
Pressure (altimeter): 29.99 inches Hg (1015.7 mb)
[Sea-level pressure: 1015.8 mb]
Winds: from the WNW (300 degrees) at 9 MPH (8 knots; 4.2 m/s)
Visibility: 10 or more miles (16+ km)
Ceiling: at least 12,000 feet AGL
Clouds: sky clear below 12,000 feet AGL
Present Weather: no significant weather observed at this time
KORL 221553Z 30008KT 10SM CLR 31/23 A2999 RMK AO2 SLP158 T03110233

Conditions at: KORL observed 22 June 2018  14:53 UTC
Temperature: 30.0°C (86°F)
Dewpoint: 23.9°C (75°F) [RH = 70%]
Pressure (altimeter): 30.00 inches Hg (1016.0 mb)
[Sea-level pressure: 1016.0 mb]
Winds: from the WNW (300 degrees) at 9 MPH (8 knots; 4.2 m/s)
Visibility: 10 or more miles (16+ km)
Ceiling: at least 12,000 feet AGL
Clouds: few clouds at 2400 feet AGL
Present Weather: no significant weather observed at this time
KORL 221453Z 30008KT 10SM FEW024 30/24 A3000 RMK AO2 SLP160 6//// T03000239 51006

Conditions at: KORL observed 22 June 2018  13:53 UTC
Temperature: 29.4°C (85°F)
Dewpoint: 24.4°C (76°F) [RH = 75%]
Pressure (altimeter): 29.99 inches Hg (1015.7 mb)
[Sea-level pressure: 1015.8 mb]
Winds: from the W (270 degrees) at 14 MPH (12 knots; 6.2 m/s)
Visibility: 10 or more miles (16+ km)
Ceiling: at least 12,000 feet AGL
Clouds: scattered clouds at 2200 feet AGL
Present Weather: no significant weather observed at this time
KORL 221353Z 27012KT 10SM SCT022 29/24 A2999 RMK AO2 SLP158 T02940244

Conditions at: KORL observed 22 June 2018  12:53 UTC
Temperature: 28.3°C (83°F)
Dewpoint: 25.0°C (77°F) [RH = 82%]
Pressure (altimeter): 30.00 inches Hg (1016.0 mb)
[Sea-level pressure: 1015.9 mb]
Winds: from the W (260 degrees) at 8 MPH (7 knots; 3.6 m/s)
Visibility: 10 or more miles (16+ km)
Ceiling: at least 12,000 feet AGL
Clouds: sky clear below 12,000 feet AGL
Present Weather: no significant weather observed at this time
KORL 221253Z 26007KT 10SM CLR 28/25 A3000 RMK AO2 SLP159 T02830250 PNO

Conditions at: KORL observed 22 June 2018  11:53 UTC
Temperature: 27.2°C (81°F)
Dewpoint: 25.0°C (77°F) [RH = 88%]
Pressure (altimeter): 29.98 inches Hg (1015.3 mb)
[Sea-level pressure: 1015.4 mb]
Winds: from the W (260 degrees) at 7 MPH (6 knots; 3.1 m/s)
Visibility: 10 or more miles (16+ km)
Ceiling: at least 12,000 feet AGL
Clouds: sky clear below 12,000 feet AGL
Present Weather: no significant weather observed at this time
KORL 221153Z 26006KT 10SM CLR 27/25 A2998 RMK AO2 SLP154 6//// 7//// T02720250 10272 20256 53020 PNO

Conditions at: KORL observed 22 June 2018  10:53 UTC
Temperature: 25.6°C (78°F)
Dewpoint: 25.0°C (77°F) [RH = 96%]
Pressure (altimeter): 29.96 inches Hg (1014.6 mb)
[Sea-level pressure: 1014.6 mb]
Winds: from the SW (230 degrees) at 5 MPH (4 knots; 2.1 m/s)
Visibility: 10 or more miles (16+ km)
Ceiling: at least 12,000 feet AGL
Clouds: few clouds at 2000 feet AGL
Present Weather: no significant weather observed at this time
KORL 221053Z 23004KT 10SM FEW020 26/25 A2996 RMK AO2 SLP146 T02560250 PNO

Conditions at: KORL observed 22 June 2018  09:53 UTC
Temperature: 25.6°C (78°F)
Dewpoint: 25.0°C (77°F) [RH = 96%]
Pressure (altimeter): 29.94 inches Hg (1014.0 mb)
[Sea-level pressure: 1013.9 mb]
Winds: from the SW (220 degrees) at 6 MPH (5 knots; 2.6 m/s)
Visibility: 10 or more miles (16+ km)
Ceiling: at least 12,000 feet AGL
Clouds: sky clear below 12,000 feet AGL
Present Weather: automated observation with no human augmentation;
there may or may not be significant weather present at this time
KORL 220953Z AUTO 22005KT 10SM CLR 26/25 A2994 RMK AO2 SLP139 T02560250 PNO

Conditions at: KORL observed 22 June 2018  08:53 UTC
Temperature: 25.6°C (78°F)
Dewpoint: 25.0°C (77°F) [RH = 96%]
Pressure (altimeter): 29.92 inches Hg (1013.3 mb)
[Sea-level pressure: 1013.4 mb]
Winds: from the SW (230 degrees) at 6 MPH (5 knots; 2.6 m/s)
Visibility: 10 or more miles (16+ km)
Ceiling: at least 12,000 feet AGL
Clouds: sky clear below 12,000 feet AGL
Present Weather: automated observation with no human augmentation;
there may or may not be significant weather present at this time
KORL 220853Z AUTO 23005KT 10SM CLR 26/25 A2992 RMK AO2 SLP134 6//// T02560250 55005 PNO

Conditions at: KORL observed 22 June 2018  07:53 UTC
Temperature: 26.1°C (79°F)
Dewpoint: 25.0°C (77°F) [RH = 94%]
Pressure (altimeter): 29.91 inches Hg (1013.0 mb)
[Sea-level pressure: 1013.2 mb]
Winds: from the SSW (210 degrees) at 6 MPH (5 knots; 2.6 m/s)
Visibility: 10 or more miles (16+ km)
Ceiling: at least 12,000 feet AGL
Clouds: sky clear below 12,000 feet AGL
Present Weather: automated observation with no human augmentation;
there may or may not be significant weather present at this time
KORL 220753Z AUTO 21005KT 10SM CLR 26/25 A2991 RMK AO2 SLP132 T02610250 PNO

Conditions at: KORL observed 22 June 2018  06:53 UTC
Temperature: 26.7°C (80°F)
Dewpoint: 25.0°C (77°F) [RH = 90%]
Pressure (altimeter): 29.92 inches Hg (1013.3 mb)
[Sea-level pressure: 1013.3 mb]
Winds: from the SSW (210 degrees) at 6 MPH (5 knots; 2.6 m/s)
Visibility: 10 or more miles (16+ km)
Ceiling: at least 12,000 feet AGL
Clouds: sky clear below 12,000 feet AGL
Present Weather: automated observation with no human augmentation;
there may or may not be significant weather present at this time
KORL 220653Z AUTO 21005KT 10SM CLR 27/25 A2992 RMK AO2 SLP133 T02670250 PNO

Conditions at: KORL observed 22 June 2018  05:53 UTC
Temperature: 26.7°C (80°F)
Dewpoint: 25.0°C (77°F) [RH = 90%]
Pressure (altimeter): 29.94 inches Hg (1014.0 mb)
[Sea-level pressure: 1013.9 mb]
Winds: from the SW (220 degrees) at 6 MPH (5 knots; 2.6 m/s)
Visibility: 10 or more miles (16+ km)
Ceiling: at least 12,000 feet AGL
Clouds: sky clear below 12,000 feet AGL
Present Weather: automated observation with no human augmentation;
there may or may not be significant weather present at this time
KORL 220553Z AUTO 22005KT 10SM CLR 27/25 A2994 RMK AO2 SLP139 6//// T02670250 10278 20267 58005 PNO

Conditions at: KORL observed 22 June 2018  04:53 UTC
Temperature: 26.7°C (80°F)
Dewpoint: 25.0°C (77°F) [RH = 90%]
Pressure (altimeter): 29.95 inches Hg (1014.3 mb)
[Sea-level pressure: 1014.3 mb]
Winds: from the SW (230 degrees) at 6 MPH (5 knots; 2.6 m/s)
Visibility: 10 or more miles (16+ km)
Ceiling: at least 12,000 feet AGL
Clouds: sky clear below 12,000 feet AGL
Present Weather: automated observation with no human augmentation;
there may or may not be significant weather present at this time
KORL 220453Z AUTO 23005KT 10SM CLR 27/25 A2995 RMK AO2 SLP143 T02670250 403110244 PNO

Conditions at: KORL observed 22 June 2018  03:53 UTC
Temperature: 26.7°C (80°F)
Dewpoint: 25.6°C (78°F) [RH = 94%]
Pressure (altimeter): 29.95 inches Hg (1014.3 mb)
[Sea-level pressure: 1014.4 mb]
Winds: from the SW (220 degrees) at 5 MPH (4 knots; 2.1 m/s)
Visibility: 10 or more miles (16+ km)
Ceiling: at least 12,000 feet AGL
Clouds: sky clear below 12,000 feet AGL
Present Weather: automated observation with no human augmentation;
there may or may not be significant weather present at this time
KORL 220353Z AUTO 22004KT 10SM CLR 27/26 A2995 RMK AO2 SLP144 T02670256 PNO

Conditions at: KORL observed 22 June 2018  02:53 UTC
Temperature: 27.2°C (81°F)
Dewpoint: 25.0°C (77°F) [RH = 88%]
Pressure (altimeter): 29.95 inches Hg (1014.3 mb)
[Sea-level pressure: 1014.4 mb]
Winds: from the WSW (240 degrees) at 3 MPH (3 knots; 1.6 m/s)
Visibility: 10 or more miles (16+ km)
Ceiling: at least 12,000 feet AGL
Clouds: sky clear below 12,000 feet AGL
Present Weather: automated observation with no human augmentation;
there may or may not be significant weather present at this time
KORL 220253Z AUTO 24003KT 10SM CLR 27/25 A2995 RMK AO2 SLP144 6//// T02720250 50010 PNO

Conditions at: KORL observed 22 June 2018  01:53 UTC
Temperature: 27.8°C (82°F)
Dewpoint: 25.6°C (78°F) [RH = 88%]
Pressure (altimeter): 29.96 inches Hg (1014.6 mb)
[Sea-level pressure: 1014.7 mb]
Winds: from the SSW (200 degrees) at 6 MPH (5 knots; 2.6 m/s)
Visibility: 10 or more miles (16+ km)
Ceiling: at least 12,000 feet AGL
Clouds: few clouds at 2600 feet AGL
Present Weather: no significant weather observed at this time
KORL 220153Z 20005KT 10SM FEW026 28/26 A2996 RMK AO2 SLP147 T02780256 PNO

Conditions at: KORL observed 22 June 2018  00:53 UTC
Temperature: 27.2°C (81°F)
Dewpoint: 25.6°C (78°F) [RH = 91%]
Pressure (altimeter): 29.93 inches Hg (1013.6 mb)
[Sea-level pressure: 1013.8 mb]
Winds: from the SSW (210 degrees) at 3 MPH (3 knots; 1.6 m/s)
Visibility: 10 or more miles (16+ km)
Ceiling: at least 12,000 feet AGL
Clouds: sky clear below 12,000 feet AGL
Present Weather: no significant weather observed at this time
KORL 220053Z 21003KT 10SM CLR 27/26 A2993 RMK AO2 SLP138 T02720256 PNO

Conditions at: KORL observed 21 June 2018  23:53 UTC
Temperature: 27.8°C (82°F)
Dewpoint: 25.6°C (78°F) [RH = 88%]
Pressure (altimeter): 29.92 inches Hg (1013.3 mb)
[Sea-level pressure: 1013.4 mb]
Winds: from the SSW (200 degrees) at 5 MPH (4 knots; 2.1 m/s)
Visibility: 10 or more miles (16+ km)
Ceiling: at least 12,000 feet AGL
Clouds: sky clear below 12,000 feet AGL
Present Weather: no significant weather observed at this time
KORL 212353Z 20004KT 10SM CLR 28/26 A2992 RMK AO2 SLP134 6//// T02780256 10278 20250 53004 PNO

Conditions at: KORL observed 21 June 2018  22:53 UTC
Temperature: 27.8°C (82°F)
Dewpoint: 25.6°C (78°F) [RH = 88%]
Pressure (altimeter): 29.91 inches Hg (1013.0 mb)
[Sea-level pressure: 1012.9 mb]
Winds: from the W (270 degrees) at 6 MPH (5 knots; 2.6 m/s)
Visibility: 10 or more miles (16+ km)
Ceiling: at least 12,000 feet AGL
Clouds: sky clear below 12,000 feet AGL
Present Weather: no significant weather observed at this time
KORL 212253Z 27005KT 10SM CLR 28/26 A2991 RMK AO2 SLP129 T02780256 PNO

Conditions at: KORL observed 21 June 2018  21:53 UTC
Temperature: 27.2°C (81°F)
Dewpoint: 25.6°C (78°F) [RH = 91%]
Pressure (altimeter): 29.90 inches Hg (1012.6 mb)
[Sea-level pressure: 1012.8 mb]
Winds: from the W (270 degrees) at 5 MPH (4 knots; 2.1 m/s)
Visibility: 10 or more miles (16+ km)
Ceiling: at least 12,000 feet AGL
Clouds: sky clear below 12,000 feet AGL
Present Weather: no significant weather observed at this time
KORL 212153Z 27004KT 10SM CLR 27/26 A2990 RMK AO2 SLP128 T02720256 PNO

Conditions at: KORL observed 21 June 2018  20:53 UTC
Temperature: 26.7°C (80°F)
Dewpoint: 25.0°C (77°F) [RH = 90%]
Pressure (altimeter): 29.91 inches Hg (1013.0 mb)
[Sea-level pressure: 1012.9 mb]
Winds: from the W (280 degrees) at 6 MPH (5 knots; 2.6 m/s)
Visibility: 10 or more miles (16+ km)
Ceiling: at least 12,000 feet AGL
Clouds: sky clear below 12,000 feet AGL
Present Weather: no significant weather observed at this time
KORL 212053Z 28005KT 10SM CLR 27/25 A2991 RMK AO2 SLP129 6//// T02670250 58013 PNO

Conditions at: KORL observed 21 June 2018  19:53 UTC
Temperature: 26.7°C (80°F)
Dewpoint: 24.4°C (76°F) [RH = 87%]
Pressure (altimeter): 29.94 inches Hg (1014.0 mb)
[Sea-level pressure: 1014.2 mb]
Winds: from the NNW (330 degrees) at 5 MPH (4 knots; 2.1 m/s)
Visibility: 10 or more miles (16+ km)
Ceiling: at least 12,000 feet AGL
Clouds: few clouds at 4000 feet AGL
scattered clouds at 4900 feet AGL
scattered clouds at 7500 feet AGL
Present Weather: no significant weather observed at this time
KORL 211953Z 33004KT 10SM FEW040 SCT049 SCT075 27/24 A2994 RMK AO2 RAE53 SLP142 T02670244 PNO

Conditions at: KORL observed 21 June 2018  18:53 UTC
Temperature: 25.6°C (78°F)
Dewpoint: 24.4°C (76°F) [RH = 93%]
Pressure (altimeter): 29.94 inches Hg (1014.0 mb)
[Sea-level pressure: 1014.0 mb]
Winds: from the WNW (290 degrees) at 7 MPH (6 knots; 3.1 m/s)
Visibility: 8 miles (13 km)
Ceiling: 11000 feet AGL
Clouds: broken clouds at 11000 feet AGL
Present Weather: -RA  (light rain)
KORL 211853Z 29006KT 8SM -RA BKN110 26/24 A2994 RMK AO2 LTG DSNT S SLP140 T02560244 PNO

Conditions at: KORL observed 21 June 2018  18:01 UTC
Temperature: 25.0°C (77°F)
Dewpoint: 23.3°C (74°F) [RH = 90%]
Pressure (altimeter): 29.94 inches Hg (1014.0 mb)
Winds: from the W (260 degrees) at 8 MPH (7 knots; 3.6 m/s)
Visibility: 9 miles (14 km)
Ceiling: at least 12,000 feet AGL
Clouds: few clouds at 6500 feet AGL
scattered clouds at 11000 feet AGL
Present Weather: -RA  (light rain)
SOME DATA ABOVE MAY BE INACCURATE!!!
"$" is an indication the sensor requires maintenance
KORL 211801Z 26007KT 9SM -RA FEW065 SCT110 25/23 A2994 RMK AO2 LTG DSNT N AND SE AND S T02500233 PNO $

Conditions at: KORL observed 21 June 2018  17:53 UTC
Temperature: 25.0°C (77°F)
Dewpoint: 23.9°C (75°F) [RH = 94%]
Pressure (altimeter): 29.95 inches Hg (1014.3 mb)
[Sea-level pressure: 1014.3 mb]
Winds: from the W (260 degrees) at 8 MPH (7 knots; 3.6 m/s)
Visibility: 9 miles (14 km)
Ceiling: 11000 feet AGL
Clouds: few clouds at 5500 feet AGL
scattered clouds at 7000 feet AGL
broken clouds at 11000 feet AGL
Present Weather: VCTS -RA  (thunderstorm in vicinity, light rain)
SOME DATA ABOVE MAY BE INACCURATE!!!
"$" is an indication the sensor requires maintenance
KORL 211753Z 26007KT 9SM VCTS -RA FEW055 SCT070 BKN110 25/24 A2995 RMK AO2 LTG DSNT N AND SE AND S TSE1655B16E31 SLP143 6//// T02500239 10311 20244 50002 PNO $

Conditions at: KORL observed 21 June 2018  17:33 UTC
Temperature: 24.4°C (76°F)
Dewpoint: 23.9°C (75°F) [RH = 97%]
Pressure (altimeter): 29.96 inches Hg (1014.6 mb)
Winds: from the W (280 degrees) at 12 MPH (10 knots; 5.2 m/s)
Visibility: 3 miles (5 km)
Ceiling: 5000 feet AGL
Clouds: broken clouds at 5000 feet AGL
overcast cloud deck at 7500 feet AGL
Present Weather: VCTS +RA BR  (thunderstorm in vicinity, heavy rain, mist)
SOME DATA ABOVE MAY BE INACCURATE!!!
"$" is an indication the sensor requires maintenance
KORL 211733Z 28010KT 3SM VCTS +RA BR BKN050 OVC075 24/24 A2996 RMK AO2 LTG DSNT ALQDS TSE1655B16E31 T02440239 PNO $

Conditions at: KORL observed 21 June 2018  17:26 UTC
Temperature: 25.0°C (77°F)
Dewpoint: 23.9°C (75°F) [RH = 94%]
Pressure (altimeter): 29.96 inches Hg (1014.6 mb)
Winds: from the WNW (290 degrees) at 12 MPH (10 knots; 5.2 m/s)
Visibility: 1.25 miles (2.01 km)
Ceiling: 4400 feet AGL
Clouds: broken clouds at 4400 feet AGL
overcast cloud deck at 7500 feet AGL
Present Weather: +TSRA BR  (heavy rain associated with thunderstorm(s), mist)
SOME DATA ABOVE MAY BE INACCURATE!!!
"$" is an indication the sensor requires maintenance
KORL 211726Z 29010KT 1 1/4SM +TSRA BR BKN044 OVC075 25/24 A2996 RMK AO2 LTG DSNT ALQDS TSE1655B16 T02500239 PNO $

Conditions at: KORL observed 21 June 2018  17:16 UTC
Temperature: 25.0°C (77°F)
Dewpoint: 23.9°C (75°F) [RH = 94%]
Pressure (altimeter): 29.97 inches Hg (1015.0 mb)
Winds: from the NW (310 degrees) at 13 MPH (11 knots; 5.7 m/s)
Visibility: 1.50 miles (2.41 km)
Ceiling: 2900 feet AGL
Clouds: broken clouds at 2900 feet AGL
broken clouds at 7500 feet AGL
overcast cloud deck at 9000 feet AGL
Present Weather: +TSRA BR  (heavy rain associated with thunderstorm(s), mist)
SOME DATA ABOVE MAY BE INACCURATE!!!
"$" is an indication the sensor requires maintenance
KORL 211716Z 31011KT 1 1/2SM R07/6000VP6000FT +TSRA BR BKN029 BKN075 OVC090 25/24 A2997 RMK AO2 LTG DSNT ALQDS TSE1655B16 T02500239 PNO $

Conditions at: KORL observed 21 June 2018  16:57 UTC
Temperature: 24.4°C (76°F)
Dewpoint: 24.4°C (76°F) [RH = 100%]
Pressure (altimeter): 29.97 inches Hg (1015.0 mb)
Winds: from the WNW (300 degrees) at 18 MPH (16 knots; 8.3 m/s)
gusting to 24 MPH (21 knots; 10.9 m/s)
Visibility: 0.50 miles (0.80 km)
Ceiling: indefinite ceiling with vertical visibility of 2000 feet AGL
Clouds: obscured sky
Present Weather: VCTS +RA FG  (thunderstorm in vicinity, heavy rain, fog)
SOME DATA ABOVE MAY BE INACCURATE!!!
"$" is an indication the sensor requires maintenance
KORL 211657Z 30016G21KT 1/2SM R07/2000V3500FT VCTS +RA FG VV020 24/24 A2997 RMK AO2 LTG DSNT N-SE TSE55 T02440244 PNO $

Conditions at: KORL observed 21 June 2018  16:53 UTC
Temperature: 25.0°C (77°F)
Dewpoint: 23.9°C (75°F) [RH = 94%]
Pressure (altimeter): 29.97 inches Hg (1015.0 mb)
[Sea-level pressure: 1015.0 mb]
Winds: from the WNW (290 degrees) at 17 MPH (15 knots; 7.8 m/s)
gusting to 26 MPH (23 knots; 12.0 m/s)
Visibility: 0.25 miles (0.40 km)
Ceiling: indefinite ceiling with vertical visibility of 2000 feet AGL
Clouds: obscured sky
Present Weather: +TSRA FG  (heavy rain associated with thunderstorm(s), fog)
SOME DATA ABOVE MAY BE INACCURATE!!!
"$" is an indication the sensor requires maintenance
KORL 211653Z 29015G23KT 1/4SM R07/2200V3000FT +TSRA FG VV020 25/24 A2997 RMK AO2 PK WND 27035/1624 WSHFT 1616 LTG DSNT ALQDS RAB26 TSE02B37 SLP150 T02500239 PNO $

Conditions at: KORL observed 21 June 2018  16:46 UTC
Temperature: 25.0°C (77°F)
Dewpoint: 24.4°C (76°F) [RH = 96%]
Pressure (altimeter): 29.97 inches Hg (1015.0 mb)
Winds: from the WNW (300 degrees) at 22 MPH (19 knots; 9.9 m/s)
gusting to 30 MPH (26 knots; 13.5 m/s)
Visibility: 0.25 miles (0.40 km)
Ceiling: 2000 feet AGL
Clouds: broken clouds at 2000 feet AGL
broken clouds at 2700 feet AGL
overcast cloud deck at 4700 feet AGL
Present Weather: +TSRA FG  (heavy rain associated with thunderstorm(s), fog)
SOME DATA ABOVE MAY BE INACCURATE!!!
"$" is an indication the sensor requires maintenance
KORL 211646Z 30019G26KT 1/4SM R07/2200V3000FT +TSRA FG BKN020 BKN027 OVC047 25/24 A2997 RMK AO2 PK WND 27035/1624 WSHFT 1616 LTG DSNT ALQDS RAB26 TSE02B37 T02500244 PNO $

Conditions at: KORL observed 21 June 2018  16:38 UTC
Temperature: 25.0°C (77°F)
Dewpoint: 23.9°C (75°F) [RH = 94%]
Pressure (altimeter): 29.97 inches Hg (1015.0 mb)
Winds: from the WNW (290 degrees) at 21 MPH (18 knots; 9.4 m/s)
gusting to 33 MPH (29 knots; 15.1 m/s)
Visibility: 0.50 miles (0.80 km)
Ceiling: 2700 feet AGL
Clouds: broken clouds at 2700 feet AGL
broken clouds at 4100 feet AGL
broken clouds at 8500 feet AGL
Present Weather: +TSRA FG  (heavy rain associated with thunderstorm(s), fog)
KORL 211638Z 29018G29KT 1/2SM R07/2800VP6000FT +TSRA FG BKN027 BKN041 BKN085 25/24 A2997 RMK AO2 PK WND 27035/1624 WSHFT 1616 LTG DSNT ALQDS RAB26 TSE02B37 P0000 T02500239

Conditions at: KORL observed 21 June 2018  16:35 UTC
Temperature: 25.6°C (78°F)
Dewpoint: 23.9°C (75°F) [RH = 90%]
Pressure (altimeter): 29.97 inches Hg (1015.0 mb)
Winds: from the W (280 degrees) at 23 MPH (20 knots; 10.4 m/s)
gusting to 33 MPH (29 knots; 15.1 m/s)
Visibility: 0.75 miles (1.21 km)
Ceiling: 4100 feet AGL
Clouds: scattered clouds at 2900 feet AGL
broken clouds at 4100 feet AGL
broken clouds at 5500 feet AGL
Present Weather: VCTS +RA BR  (thunderstorm in vicinity, heavy rain, mist)
KORL 211635Z 28020G29KT 3/4SM R07/2800VP6000FT VCTS +RA BR SCT029 BKN041 BKN055 26/24 A2997 RMK AO2 PK WND 27035/1624 WSHFT 1616 LTG DSNT ALQDS RAB26 TSE02 P0000 T02560239

Conditions at: KORL observed 21 June 2018  16:31 UTC
Temperature: 26.7°C (80°F)
Dewpoint: 24.4°C (76°F) [RH = 87%]
Pressure (altimeter): 29.97 inches Hg (1015.0 mb)
Winds: from the W (280 degrees) at 25 MPH (22 knots; 11.4 m/s)
gusting to 40 MPH (35 knots; 18.2 m/s)
Visibility: 2.50 miles (4.02 km)
Ceiling: 5500 feet AGL
Clouds: few clouds at 2500 feet AGL
scattered clouds at 4100 feet AGL
broken clouds at 5500 feet AGL
Present Weather: VCTS -RA BR  (thunderstorm in vicinity, light rain, mist)
KORL 211631Z 28022G35KT 2 1/2SM R07/5000VP6000FT VCTS -RA BR FEW025 SCT041 BKN055 27/24 A2997 RMK AO2 PK WND 27035/1624 WSHFT 1616 LTG DSNT ALQDS RAB26 TSE02 P0000 T02670244

Conditions at: KORL observed 21 June 2018  16:13 UTC
Temperature: 30.6°C (87°F)
Dewpoint: 23.9°C (75°F) [RH = 68%]
Pressure (altimeter): 29.95 inches Hg (1014.3 mb)
Winds: from the SW (220 degrees) at 14 MPH (12 knots; 6.2 m/s)
Visibility: 10 or more miles (16+ km)
Ceiling: at least 12,000 feet AGL
Clouds: few clouds at 8000 feet AGL
Present Weather: VCTS  (thunderstorm in vicinity)
KORL 211613Z 22012KT 10SM VCTS FEW080 31/24 A2995 RMK AO2 LTG DSNT ALQDS TSE02 T03060239